Language selection

Weather shortcuts

Pacific - South Coast: Past 24 Hour Conditions

 

Georgia Strait - 46303

04:00 PM PST 26 February 2024Buoy position: 49.03N 123.43W
Disclaimer

This table is a summary of hourly weather conditions for the past 24 hours.
Please note that these observations might not always be representative of weather conditions over their associated marine area.

Date / Time
(PST)
Wind(knots) Wave height(m) Wave period(s) Pressure(kPa) Air tempC) Water tempC)
26 February 2024
16:00 N/A N/A N/A N/A N/A N/A
15:00 NNW 8 gusts 13 1.01 4.2 100.9 4 8
14:00 NNW 16 gusts 21 0.97 4.1 100.9 6 8
13:00 NW 15 gusts 20 0.89 3.8 101.0 6 8
12:00 NW 13 gusts 17 0.79 3.5 101.0 6 8
11:00 NW 17 gusts 22 0.54 2.9 100.9 5 7
10:00 WNW 12 gusts 15 0.51 3.0 100.9 5 7
9:00 NW 14 gusts 17 0.67 3.0 100.9 4 7
8:00 WNW 14 gusts 16 0.27 2.4 100.8 4 7
7:00 W 10 gusts 11 0.23 2.7 100.7 4 6
6:00 W 11 gusts 12 0.18 2.9 100.7 4 6
5:00 WSW 7 gusts 8 0.17 3.1 100.6 4 7
4:00 SW 5 gusts 6 0.20 3.3 100.6 4 6
3:00 W 5 gusts 7 0.21 3.3 100.6 4 7
2:00 WNW 8 gusts 9 0.22 3.3 100.6 5 6
1:00 W 5 gusts 7 0.28 3.7 100.6 5 7
0:00 W 4 gusts 5 0.35 3.8 100.6 5 7
25 February 2024
23:00 WSW 4 gusts 7 0.44 3.9 100.6 5 7
22:00 W 6 gusts 8 0.72 4.1 100.6 5 8
21:00 WNW 12 gusts 14 0.94 4.1 100.6 5 8
20:00 NW 22 gusts 26 1.04 3.9 100.5 5 8
19:00 NW 24 gusts 28 0.88 3.8 100.4 5 8
18:00 NW 10 gusts 12 0.72 3.8 100.4 7 8
17:00 NW 10 gusts 12 0.74 3.6 100.4 7 8
16:00 NW 18 gusts 23 0.86 3.3 100.4 7 8

Zoom-in to make a selection

Map of Pacific - South Coast marine weather areas South Nomad - 46036 Sentry Shoal - 46131 South Brooks - 46132 Halibut Bank - 46146 South Moresby - 46147 South Hecate Strait - 46185 West Sea Otter - 46204 La Perouse Bank - 46206 East Dellwood - 46207 Georgia Strait - 46303 English Bay – 46304 Discovery Island Esquimalt Harbour Kelp Reefs Malahat Race Rocks Lightstation Saturna Island Sheringham Point University of Victoria Victoria Gonzales Victoria Int'l Airport Ballenas Islands Campbell River Airport Comox Airport Entrance Island Fanny Island Nanaimo Airport Port Hardy Airport Sisters Islets Estevan Point Port Alberni Sartine Island Solander Island Tofino Airport Grief Point Howe Sound - Pam Rocks Powell River Airport Sechelt Squamish Airport Cape St.James Bella Bella Airport Bella Coola Airport Cathedral Point Herbert Island Point Atkinson Sand Heads Lightstation Tsawwassen Ferry Terminal Vancouver Int'l Airport Vancouver Harbour West Vancouver
Legend:
buoy Buoy
land station Land Station

Pacific - South Coast Area

Another Region

Date modified: